Time;durP1;ratioP1;P1;durP2;ratioP2;P2;SDS_P1;SDS_P2;PMS_P1;PMS_P2;Temp;Humidity;BMP_temperature;BMP_pressure;BME280_temperature;BME280_humidity;BME280_pressure;Samples;Min_cycle;Max_cycle;Signal;HPM_P1;HPM_P2
2021/10/10 00:00:18;;;;;;;26.92;19.00;;;6.80;99.90;;;;;;5062577;28;20048;-67
2021/10/10 00:02:44;;;;;;;20.88;15.98;;;6.80;99.90;;;;;;5081338;28;20438;-67
2021/10/10 00:05:09;;;;;;;18.85;14.15;;;6.80;99.90;;;;;;5076141;28;20047;-67
2021/10/10 00:07:35;;;;;;;23.95;16.10;;;6.70;99.90;;;;;;5110899;27;20496;-67
2021/10/10 00:10:01;;;;;;;22.08;15.73;;;6.70;99.90;;;;;;5078841;28;20059;-67
2021/10/10 00:12:27;;;;;;;19.90;15.57;;;6.60;99.90;;;;;;5078182;28;20050;-67
2021/10/10 00:14:52;;;;;;;23.48;16.55;;;6.60;99.90;;;;;;5078496;28;20109;-67
2021/10/10 00:17:18;;;;;;;20.02;14.57;;;6.50;99.90;;;;;;5077979;28;20047;-67
2021/10/10 00:19:43;;;;;;;18.45;14.88;;;6.50;99.90;;;;;;5076760;28;20039;-67
2021/10/10 00:22:09;;;;;;;19.42;15.63;;;6.50;99.90;;;;;;5077866;28;20051;-67
2021/10/10 00:24:35;;;;;;;10.70;9.60;;;6.40;99.90;;;;;;5079746;28;20119;-67
2021/10/10 00:27:00;;;;;;;20.38;16.98;;;6.40;99.90;;;;;;5079478;28;20482;-67
2021/10/10 00:29:26;;;;;;;23.42;15.38;;;6.40;99.90;;;;;;5078899;28;21580;-67
2021/10/10 00:31:51;;;;;;;18.70;13.38;;;6.40;99.90;;;;;;5078836;28;20047;-67
2021/10/10 00:34:17;;;;;;;13.55;9.63;;;6.40;99.90;;;;;;5080693;28;20028;-67
2021/10/10 00:36:43;;;;;;;20.10;14.75;;;6.30;99.90;;;;;;5076202;28;20479;-67
2021/10/10 00:39:09;;;;;;;22.63;12.82;;;6.30;99.90;;;;;;5078457;28;20162;-67
2021/10/10 00:41:38;;;;;;;20.02;16.27;;;6.30;99.90;;;;;;5079861;28;20048;-67
2021/10/10 00:44:11;;;;;;;21.58;16.10;;;6.30;99.90;;;;;;5074720;28;20461;-67
2021/10/10 00:46:38;;;;;;;14.27;11.30;;;6.20;99.90;;;;;;5077995;28;20063;-67
2021/10/10 00:49:04;;;;;;;18.05;13.55;;;6.20;99.90;;;;;;5081712;28;20036;-67
2021/10/10 00:51:34;;;;;;;15.73;13.45;;;6.20;99.90;;;;;;5079579;28;20466;-67
2021/10/10 00:54:03;;;;;;;21.85;15.95;;;6.20;99.90;;;;;;5078158;28;20036;-67
2021/10/10 00:56:31;;;;;;;25.75;17.08;;;6.20;99.90;;;;;;5076738;28;20044;-67
2021/10/10 00:58:58;;;;;;;21.17;14.68;;;6.20;99.90;;;;;;5077794;28;20040;-67
2021/10/10 01:01:26;;;;;;;19.30;13.77;;;6.20;99.90;;;;;;5078400;28;20033;-67
2021/10/10 01:03:52;;;;;;;20.27;13.45;;;6.20;99.90;;;;;;5076220;28;20044;-67
2021/10/10 01:06:17;;;;;;;18.30;14.70;;;6.20;99.90;;;;;;5075968;28;20850;-66
2021/10/10 01:08:43;;;;;;;17.73;13.98;;;6.20;99.90;;;;;;5076181;28;20036;-67
2021/10/10 01:11:10;;;;;;;16.98;12.63;;;6.20;99.90;;;;;;5079977;28;20527;-67
2021/10/10 01:13:36;;;;;;;19.65;13.40;;;6.10;99.90;;;;;;5108328;27;20040;-67
2021/10/10 01:16:02;;;;;;;22.40;16.40;;;6.10;99.90;;;;;;5075191;28;20092;-67
2021/10/10 01:18:28;;;;;;;30.50;18.90;;;6.20;99.90;;;;;;5078677;28;20036;-67
2021/10/10 01:20:54;;;;;;;26.05;18.60;;;6.10;99.90;;;;;;5076230;28;20099;-67
2021/10/10 01:23:20;;;;;;;19.70;16.50;;;6.10;99.90;;;;;;5076153;28;20498;-67
2021/10/10 01:25:46;;;;;;;20.10;16.58;;;6.10;99.90;;;;;;5077483;28;20073;-67
2021/10/10 01:28:12;;;;;;;17.42;15.30;;;6.10;99.90;;;;;;5077285;28;20554;-67
2021/10/10 01:30:37;;;;;;;22.95;16.98;;;6.10;99.90;;;;;;5077518;28;20115;-67
2021/10/10 01:33:07;;;;;;;20.55;16.50;;;6.00;99.90;;;;;;5078361;28;20093;-67
2021/10/10 01:35:34;;;;;;;20.42;16.92;;;6.00;99.90;;;;;;5109357;27;20044;-67
2021/10/10 01:37:59;;;;;;;20.15;16.25;;;6.00;99.90;;;;;;5078321;28;20050;-67
2021/10/10 01:40:25;;;;;;;17.98;15.80;;;6.00;99.90;;;;;;5078100;28;20036;-67
2021/10/10 01:42:51;;;;;;;19.52;16.45;;;6.00;99.90;;;;;;5110753;27;20040;-67
2021/10/10 01:45:19;;;;;;;22.73;16.52;;;6.00;99.90;;;;;;5077967;28;20070;-67
2021/10/10 01:47:45;;;;;;;17.85;15.68;;;6.00;99.90;;;;;;5075503;28;20034;-67
2021/10/10 01:50:11;;;;;;;21.33;16.05;;;6.00;99.90;;;;;;5079093;28;20040;-68
2021/10/10 01:52:40;;;;;;;18.90;15.27;;;6.00;99.90;;;;;;5080386;28;20078;-67
2021/10/10 01:55:06;;;;;;;19.63;13.63;;;6.00;99.90;;;;;;5072233;28;20046;-67
2021/10/10 01:57:32;;;;;;;21.95;14.88;;;5.90;99.90;;;;;;5109300;27;20039;-67
2021/10/10 01:59:57;;;;;;;16.63;14.32;;;5.90;99.90;;;;;;5075794;28;20733;-67
2021/10/10 02:02:23;;;;;;;9.15;7.43;;;5.90;99.90;;;;;;5075114;28;20095;-67
2021/10/10 02:04:48;;;;;;;15.88;11.35;;;5.80;99.90;;;;;;5081689;28;20066;-67
2021/10/10 02:07:14;;;;;;;16.00;13.18;;;5.80;99.90;;;;;;5078210;28;20061;-67
2021/10/10 02:09:42;;;;;;;15.65;11.63;;;5.70;99.90;;;;;;5079427;28;20395;-67
2021/10/10 02:12:08;;;;;;;15.30;12.20;;;5.70;99.90;;;;;;5074095;28;20059;-66
2021/10/10 02:14:35;;;;;;;22.83;16.05;;;5.70;99.90;;;;;;5075696;28;20039;-67
2021/10/10 02:17:00;;;;;;;19.08;15.45;;;5.60;99.90;;;;;;5077056;28;20448;-67
2021/10/10 02:19:26;;;;;;;19.73;14.93;;;5.60;99.90;;;;;;5077628;28;20040;-67
2021/10/10 02:21:52;;;;;;;19.60;15.07;;;5.70;99.90;;;;;;5078007;28;20040;-67
2021/10/10 02:24:17;;;;;;;19.45;16.10;;;5.60;99.90;;;;;;5074777;28;20032;-67
2021/10/10 02:26:43;;;;;;;21.88;15.23;;;5.70;99.90;;;;;;5078322;28;20053;-67
2021/10/10 02:29:09;;;;;;;19.83;15.13;;;5.70;99.90;;;;;;5085372;28;20448;-67
2021/10/10 02:31:35;;;;;;;21.58;15.25;;;5.60;99.90;;;;;;5086515;28;20032;-67
2021/10/10 02:34:00;;;;;;;23.80;16.20;;;5.60;99.90;;;;;;5078666;28;20040;-67
2021/10/10 02:36:26;;;;;;;17.48;13.52;;;5.60;99.90;;;;;;5083527;28;20043;-67
2021/10/10 02:38:51;;;;;;;15.48;11.25;;;5.70;99.90;;;;;;5082323;28;20111;-66
2021/10/10 02:41:17;;;;;;;15.27;11.20;;;5.60;99.90;;;;;;5082699;28;20040;-67
2021/10/10 02:43:43;;;;;;;13.75;10.38;;;5.60;99.90;;;;;;5083304;28;20040;-67
2021/10/10 02:46:08;;;;;;;13.68;9.85;;;5.50;99.90;;;;;;5088162;28;20205;-67
2021/10/10 02:48:34;;;;;;;14.27;12.52;;;5.40;99.90;;;;;;5087380;28;20028;-67
2021/10/10 02:50:59;;;;;;;18.13;14.55;;;5.40;99.90;;;;;;5087186;28;20047;-67
2021/10/10 02:53:25;;;;;;;20.20;16.45;;;5.40;99.90;;;;;;5067247;28;20075;-67
2021/10/10 02:55:51;;;;;;;19.63;16.58;;;5.40;99.90;;;;;;5090283;28;20371;-67
2021/10/10 02:58:16;;;;;;;21.67;16.40;;;5.40;99.90;;;;;;5086846;28;20099;-67
2021/10/10 03:00:42;;;;;;;18.05;16.10;;;5.40;99.90;;;;;;5090582;28;20036;-67
2021/10/10 03:03:07;;;;;;;20.65;14.90;;;5.50;99.90;;;;;;5087299;28;20052;-67
2021/10/10 03:05:33;;;;;;;21.05;16.77;;;5.50;99.90;;;;;;5087184;28;20039;-67
2021/10/10 03:07:58;;;;;;;24.80;18.73;;;5.50;99.90;;;;;;5086436;28;20133;-67
2021/10/10 03:10:24;;;;;;;22.85;16.52;;;5.40;99.90;;;;;;5087002;28;20037;-67
2021/10/10 03:12:49;;;;;;;21.63;16.90;;;5.40;99.90;;;;;;5085624;28;20052;-67
2021/10/10 03:15:15;;;;;;;23.67;18.38;;;5.50;99.90;;;;;;5088813;28;20051;-67
2021/10/10 03:17:41;;;;;;;23.70;17.55;;;5.40;99.90;;;;;;5087288;28;20039;-67
2021/10/10 03:20:08;;;;;;;21.40;17.35;;;5.30;99.90;;;;;;5087952;28;20090;-67
2021/10/10 03:22:33;;;;;;;23.23;17.13;;;5.40;99.90;;;;;;5087254;28;20040;-67
2021/10/10 03:24:59;;;;;;;21.25;18.08;;;5.30;99.90;;;;;;5087576;28;20047;-67
2021/10/10 03:27:27;;;;;;;21.10;17.33;;;5.30;99.90;;;;;;5092257;28;20453;-67
2021/10/10 03:29:54;;;;;;;19.65;16.00;;;5.30;99.90;;;;;;5087510;28;20036;-67
2021/10/10 03:32:19;;;;;;;23.25;18.52;;;5.30;99.90;;;;;;5086651;28;20294;-67
2021/10/10 03:34:45;;;;;;;22.85;18.35;;;5.30;99.90;;;;;;5090388;28;20039;-67
2021/10/10 03:37:11;;;;;;;21.02;18.40;;;5.20;99.90;;;;;;5084984;28;20051;-67
2021/10/10 03:39:36;;;;;;;25.08;19.27;;;5.20;99.90;;;;;;5087030;28;20040;-67
2021/10/10 03:42:02;;;;;;;23.30;18.08;;;5.20;99.90;;;;;;5085226;28;20052;-67
2021/10/10 03:44:27;;;;;;;25.92;18.55;;;5.20;99.90;;;;;;5085776;28;20044;-67
2021/10/10 03:46:53;;;;;;;21.08;17.23;;;5.10;99.90;;;;;;5085139;28;20067;-67
2021/10/10 03:49:19;;;;;;;23.00;18.55;;;5.10;99.90;;;;;;5089757;28;20497;-67
2021/10/10 03:51:45;;;;;;;26.42;18.30;;;5.10;99.90;;;;;;5090382;28;20051;-67
2021/10/10 03:56:39;;;;;;;18.95;15.60;;;5.00;99.90;;;;;;5089517;28;20482;-67
2021/10/10 03:59:04;;;;;;;24.90;16.77;;;5.00;99.90;;;;;;5092121;28;20043;-67
2021/10/10 04:01:30;;;;;;;23.70;16.85;;;4.90;99.90;;;;;;5091069;28;20046;-67
2021/10/10 04:03:56;;;;;;;26.35;18.27;;;4.90;99.90;;;;;;5120114;27;20466;-67
2021/10/10 04:06:21;;;;;;;25.27;18.98;;;4.90;99.90;;;;;;5088520;28;20133;-67
2021/10/10 04:08:47;;;;;;;25.30;18.65;;;4.80;99.90;;;;;;5083528;28;20038;-67
2021/10/10 04:11:12;;;;;;;26.92;19.08;;;4.80;99.90;;;;;;5086479;28;20031;-67
2021/10/10 04:13:38;;;;;;;20.77;16.90;;;4.80;99.90;;;;;;5082366;28;20444;-67
2021/10/10 04:16:05;;;;;;;20.10;16.40;;;4.80;99.90;;;;;;5088234;28;20086;-67
2021/10/10 04:18:30;;;;;;;24.73;18.40;;;4.80;99.90;;;;;;5083893;28;20044;-68
2021/10/10 04:20:58;;;;;;;20.80;16.73;;;4.80;99.90;;;;;;5089292;28;20047;-67
2021/10/10 04:23:24;;;;;;;21.77;15.02;;;4.80;99.90;;;;;;5084832;28;20052;-67
2021/10/10 04:25:49;;;;;;;11.77;9.85;;;4.80;99.90;;;;;;5089940;28;20032;-67
2021/10/10 04:28:15;;;;;;;12.43;10.40;;;4.70;99.90;;;;;;5087443;28;20114;-67
2021/10/10 04:30:40;;;;;;;14.30;10.57;;;4.70;99.90;;;;;;5087454;28;20028;-67
2021/10/10 04:33:08;;;;;;;12.77;11.10;;;4.70;99.90;;;;;;5082705;28;20055;-67
2021/10/10 04:35:34;;;;;;;11.43;10.05;;;4.70;99.90;;;;;;5085965;28;20078;-67
2021/10/10 04:38:00;;;;;;;16.98;13.00;;;4.60;99.90;;;;;;5078753;28;20144;-68
2021/10/10 04:40:25;;;;;;;15.85;12.77;;;4.70;99.90;;;;;;5112320;27;20163;-67
2021/10/10 04:42:51;;;;;;;19.88;14.75;;;4.60;99.90;;;;;;5080096;28;20086;-67
2021/10/10 04:45:16;;;;;;;20.40;15.35;;;4.60;99.90;;;;;;5084978;28;20071;-67
2021/10/10 04:47:42;;;;;;;21.17;16.48;;;4.70;99.90;;;;;;5082475;28;20057;-68
2021/10/10 04:50:08;;;;;;;18.70;15.25;;;4.60;99.90;;;;;;5086356;28;20036;-67
2021/10/10 04:52:35;;;;;;;19.85;16.20;;;4.60;99.90;;;;;;5064379;28;20052;-67
2021/10/10 04:55:02;;;;;;;15.38;12.73;;;4.60;99.90;;;;;;5084826;28;20130;-67
2021/10/10 04:57:27;;;;;;;13.82;12.15;;;4.60;99.90;;;;;;5087058;28;20043;-67
2021/10/10 04:59:53;;;;;;;15.90;13.95;;;4.60;99.90;;;;;;5084159;28;20077;-67
2021/10/10 05:02:20;;;;;;;17.20;14.68;;;4.50;99.90;;;;;;5084983;28;20483;-67
2021/10/10 05:04:47;;;;;;;17.58;15.50;;;4.50;99.90;;;;;;5085056;28;20032;-67
2021/10/10 05:07:13;;;;;;;20.58;13.68;;;4.50;99.90;;;;;;5068192;28;20039;-67
2021/10/10 05:09:38;;;;;;;14.52;12.68;;;4.50;99.90;;;;;;5087522;28;20388;-67
2021/10/10 05:12:04;;;;;;;19.92;14.77;;;4.50;99.90;;;;;;5085377;28;20051;-67
2021/10/10 05:14:30;;;;;;;21.27;17.42;;;4.60;99.90;;;;;;5081588;28;20045;-67
2021/10/10 05:16:57;;;;;;;12.18;10.52;;;4.50;99.90;;;;;;5077638;28;20652;-67
2021/10/10 05:19:23;;;;;;;12.45;10.93;;;4.50;99.90;;;;;;5076661;27;20444;-67
2021/10/10 05:21:48;;;;;;;14.68;11.60;;;4.40;99.90;;;;;;5075830;28;20143;-67
2021/10/10 05:24:14;;;;;;;14.30;10.20;;;4.40;99.90;;;;;;5079228;28;20115;-67
2021/10/10 05:26:40;;;;;;;11.70;10.50;;;4.40;99.90;;;;;;5079868;28;20040;-67
2021/10/10 05:29:06;;;;;;;21.35;14.43;;;4.40;99.90;;;;;;5080078;28;20051;-67
2021/10/10 05:31:31;;;;;;;17.40;14.70;;;4.40;99.90;;;;;;5078221;28;20554;-67
2021/10/10 05:33:57;;;;;;;19.45;14.15;;;4.50;99.90;;;;;;5078355;28;20078;-67
2021/10/10 05:36:23;;;;;;;21.38;15.35;;;4.40;99.90;;;;;;5078470;28;20063;-67
2021/10/10 05:38:49;;;;;;;17.52;14.88;;;4.40;99.90;;;;;;5077494;28;20062;-67
2021/10/10 05:41:15;;;;;;;18.67;14.02;;;4.40;99.90;;;;;;5076019;28;20047;-67
2021/10/10 05:43:41;;;;;;;22.10;15.13;;;4.40;99.90;;;;;;5082582;28;20453;-67
2021/10/10 05:46:06;;;;;;;19.25;15.52;;;4.50;99.90;;;;;;5081831;28;20047;-67
2021/10/10 05:48:32;;;;;;;17.65;15.68;;;4.50;99.90;;;;;;5082884;28;20036;-67
2021/10/10 05:50:58;;;;;;;15.65;12.82;;;4.50;99.90;;;;;;5084183;28;20039;-67
2021/10/10 05:53:24;;;;;;;18.73;14.13;;;4.50;99.90;;;;;;5081160;28;20048;-67
2021/10/10 05:55:57;;;;;;;18.63;11.73;;;4.50;99.90;;;;;;5084286;28;20048;-67
2021/10/10 05:58:24;;;;;;;23.65;15.15;;;4.40;99.90;;;;;;5080962;28;20087;-67
2021/10/10 06:00:50;;;;;;;18.95;14.07;;;4.40;99.90;;;;;;5081907;28;20785;-66
2021/10/10 06:03:16;;;;;;;12.02;9.02;;;4.30;99.90;;;;;;5082886;28;20036;-67
2021/10/10 06:05:42;;;;;;;15.18;11.52;;;4.30;99.90;;;;;;5079832;28;20118;-67
2021/10/10 06:08:07;;;;;;;23.48;15.73;;;4.30;99.90;;;;;;5082026;28;20497;-67
2021/10/10 06:10:33;;;;;;;19.98;15.65;;;4.40;99.90;;;;;;5085209;28;20044;-67
2021/10/10 06:13:00;;;;;;;15.65;11.93;;;4.40;99.90;;;;;;5083216;28;20066;-67
2021/10/10 06:15:26;;;;;;;17.08;13.65;;;4.40;99.90;;;;;;5081462;28;20067;-67
2021/10/10 06:17:52;;;;;;;15.32;13.30;;;4.40;99.90;;;;;;5080325;28;20083;-67
2021/10/10 06:20:17;;;;;;;17.27;13.18;;;4.50;99.90;;;;;;5084452;28;20182;-67
2021/10/10 06:22:43;;;;;;;17.08;14.27;;;4.50;99.90;;;;;;5080013;28;20122;-68
2021/10/10 06:25:09;;;;;;;14.80;12.77;;;4.60;99.90;;;;;;5116381;27;20105;-67
2021/10/10 06:27:34;;;;;;;18.77;14.70;;;4.60;99.90;;;;;;5079982;28;20036;-67
2021/10/10 06:30:00;;;;;;;18.33;14.10;;;4.70;99.90;;;;;;5079127;28;20036;-67
2021/10/10 06:32:26;;;;;;;17.42;15.57;;;4.80;99.90;;;;;;5088089;28;20081;-67
2021/10/10 06:34:51;;;;;;;17.27;11.88;;;4.80;99.90;;;;;;5085456;28;20036;-67
2021/10/10 06:37:17;;;;;;;20.52;16.60;;;4.90;99.90;;;;;;5087989;28;20032;-67
2021/10/10 06:39:42;;;;;;;19.30;17.38;;;4.90;99.90;;;;;;5086841;28;20036;-67
2021/10/10 06:42:08;;;;;;;20.85;17.42;;;5.10;99.90;;;;;;5087153;28;20206;-67
2021/10/10 06:44:35;;;;;;;20.00;16.52;;;5.30;99.90;;;;;;5083954;28;20075;-67
2021/10/10 06:47:02;;;;;;;19.60;16.77;;;5.40;99.90;;;;;;5086220;28;20483;-67
2021/10/10 06:49:29;;;;;;;24.35;17.30;;;5.60;99.90;;;;;;5116787;27;20071;-67
2021/10/10 06:51:55;;;;;;;23.50;18.13;;;5.90;99.90;;;;;;5085581;28;20047;-67
2021/10/10 06:54:21;;;;;;;20.23;17.10;;;6.00;99.90;;;;;;5089412;28;20046;-67
2021/10/10 06:56:46;;;;;;;21.67;16.63;;;6.10;99.90;;;;;;5083852;28;20071;-67
2021/10/10 06:59:12;;;;;;;25.65;18.00;;;6.30;99.90;;;;;;5087748;28;20486;-67
2021/10/10 07:01:39;;;;;;;24.80;18.27;;;6.40;99.90;;;;;;5087179;28;20492;-67
2021/10/10 07:04:04;;;;;;;22.52;17.90;;;6.50;99.90;;;;;;5090476;28;20139;-67
2021/10/10 07:06:30;;;;;;;24.85;18.13;;;6.60;99.90;;;;;;5094230;28;20115;-67
2021/10/10 07:08:56;;;;;;;18.38;15.57;;;6.70;99.90;;;;;;5089190;28;20083;-67
2021/10/10 07:11:22;;;;;;;19.33;16.08;;;6.80;99.90;;;;;;5083351;28;20390;-67
2021/10/10 07:13:48;;;;;;;22.92;17.38;;;6.80;99.90;;;;;;5084031;28;20557;-67
2021/10/10 07:16:16;;;;;;;25.63;16.13;;;7.00;99.90;;;;;;5091258;28;20529;-67
2021/10/10 07:18:46;;;;;;;22.13;16.58;;;7.10;99.90;;;;;;5080870;28;20051;-67
2021/10/10 07:21:40;;;;;;;22.92;17.17;;;7.10;99.90;;;;;;5085092;28;20430;-67
2021/10/10 07:26:33;;;;;;;21.13;17.48;;;7.20;99.90;;;;;;5087265;28;20659;-67
2021/10/10 07:28:59;;;;;;;22.38;17.50;;;7.40;99.90;;;;;;5086614;28;20063;-67
2021/10/10 07:31:25;;;;;;;24.30;18.95;;;7.40;99.90;;;;;;5085791;28;20040;-67
2021/10/10 07:33:50;;;;;;;20.80;18.50;;;7.50;99.90;;;;;;5093898;23;20044;-81
2021/10/10 07:36:17;;;;;;;24.15;18.05;;;7.50;99.90;;;;;;5029369;28;20153;-82
2021/10/10 07:38:42;;;;;;;24.08;17.38;;;7.50;99.90;;;;;;5034186;28;20445;-81
2021/10/10 07:41:08;;;;;;;21.58;17.98;;;7.60;99.90;;;;;;5047799;28;20060;-81
2021/10/10 07:43:34;;;;;;;21.98;18.23;;;7.70;99.90;;;;;;5049035;28;20041;-81
2021/10/10 07:49:42;;;;;;;20.70;16.33;;;7.80;99.90;;;;;;5050735;28;20049;-82
2021/10/10 07:52:07;;;;;;;23.20;17.45;;;7.90;99.90;;;;;;5049359;28;20053;-82
2021/10/10 07:54:33;;;;;;;23.63;18.00;;;7.90;99.90;;;;;;5052234;28;20044;-82
2021/10/10 07:57:02;;;;;;;19.98;17.73;;;8.00;99.90;;;;;;5051680;28;20051;-82
2021/10/10 07:59:27;;;;;;;21.98;18.90;;;8.40;99.90;;;;;;5055820;23;20082;-67
2021/10/10 08:01:53;;;;;;;24.77;18.45;;;8.10;99.90;;;;;;5026667;28;20053;-67
2021/10/10 08:04:20;;;;;;;21.23;17.52;;;8.20;99.90;;;;;;5027320;28;20491;-67
2021/10/10 08:06:49;;;;;;;30.92;18.52;;;8.20;99.90;;;;;;5011474;28;20049;-67
2021/10/10 08:09:17;;;;;;;20.70;18.15;;;8.30;99.90;;;;;;5028273;28;20050;-67
2021/10/10 08:11:43;;;;;;;21.95;19.58;;;8.40;99.90;;;;;;5025615;28;20123;-67
2021/10/10 08:14:10;;;;;;;24.55;19.30;;;8.40;99.90;;;;;;5024660;28;20180;-67
2021/10/10 08:16:36;;;;;;;22.52;18.83;;;8.50;99.90;;;;;;5026729;28;20724;-67
2021/10/10 08:19:02;;;;;;;25.20;19.20;;;8.60;99.90;;;;;;5027635;28;20037;-68
2021/10/10 08:21:31;;;;;;;21.90;18.52;;;8.60;99.90;;;;;;5029183;28;20053;-67
2021/10/10 08:23:56;;;;;;;28.90;19.65;;;8.70;99.90;;;;;;5027746;28;20468;-67
2021/10/10 08:26:22;;;;;;;21.95;19.33;;;8.80;99.90;;;;;;5028289;28;20087;-67
2021/10/10 08:28:48;;;;;;;22.45;19.13;;;8.80;99.90;;;;;;5026909;28;20083;-67
2021/10/10 08:31:14;;;;;;;28.52;20.20;;;9.00;99.90;;;;;;5027953;28;20140;-67
2021/10/10 08:33:40;;;;;;;24.80;20.58;;;9.10;99.90;;;;;;5026405;28;20065;-68
2021/10/10 08:36:08;;;;;;;28.08;20.52;;;9.20;99.90;;;;;;5041234;28;20451;-67
2021/10/10 08:38:37;;;;;;;23.13;20.63;;;9.40;99.90;;;;;;5025998;28;20038;-67
2021/10/10 08:41:04;;;;;;;23.73;19.15;;;9.40;99.90;;;;;;5026545;28;20032;-67
2021/10/10 08:43:31;;;;;;;24.23;19.17;;;9.50;99.90;;;;;;5026816;28;20153;-67
2021/10/10 08:46:03;;;;;;;22.83;20.13;;;9.60;99.90;;;;;;5030060;28;20112;-67
2021/10/10 08:48:29;;;;;;;23.10;20.60;;;9.60;99.90;;;;;;5028062;28;20534;-67
2021/10/10 08:50:55;;;;;;;28.50;20.15;;;9.70;99.90;;;;;;5027023;28;20073;-67
2021/10/10 08:53:22;;;;;;;22.67;20.30;;;9.80;99.90;;;;;;5025230;28;20136;-67
2021/10/10 08:55:49;;;;;;;28.42;21.10;;;9.80;99.90;;;;;;5022868;28;20044;-68
2021/10/10 08:58:18;;;;;;;25.65;21.17;;;9.90;99.90;;;;;;5022563;28;20475;-67
2021/10/10 09:00:49;;;;;;;22.73;19.88;;;9.90;99.90;;;;;;5023462;28;20059;-67
2021/10/10 09:03:16;;;;;;;24.73;20.20;;;10.00;99.90;;;;;;5023336;28;20068;-67
2021/10/10 09:05:42;;;;;;;24.05;21.58;;;10.00;99.90;;;;;;5023986;28;20400;-67
2021/10/10 09:08:08;;;;;;;24.77;21.55;;;10.80;99.90;;;;;;5043067;28;20046;-67
2021/10/10 09:10:34;;;;;;;24.75;21.75;;;10.20;99.90;;;;;;5026753;28;20076;-67
2021/10/10 09:13:19;;;;;;;23.52;20.70;;;10.30;99.90;;;;;;5023350;28;20056;-67
2021/10/10 09:15:49;;;;;;;25.83;21.02;;;10.40;99.90;;;;;;5028335;28;20052;-67
2021/10/10 09:18:16;;;;;;;25.13;22.42;;;10.40;99.90;;;;;;5026796;28;20053;-67
2021/10/10 09:20:47;;;;;;;28.17;21.45;;;10.40;99.90;;;;;;5027057;28;20037;-67
2021/10/10 09:23:16;;;;;;;27.67;20.98;;;10.50;99.90;;;;;;5027175;28;20044;-67
2021/10/10 09:25:56;;;;;;;24.83;21.73;;;10.60;99.90;;;;;;5022954;28;20053;-67
2021/10/10 09:28:25;;;;;;;23.50;20.85;;;10.50;99.90;;;;;;5022506;28;20044;-68
2021/10/10 09:31:02;;;;;;;23.58;20.85;;;10.50;99.90;;;;;;5022449;28;20048;-67
2021/10/10 09:33:36;;;;;;;24.23;21.25;;;10.60;99.90;;;;;;5008212;28;20045;-67
2021/10/10 09:36:04;;;;;;;25.52;21.58;;;10.60;99.90;;;;;;5026330;28;20077;-68
2021/10/10 09:38:30;;;;;;;25.20;20.95;;;10.60;99.90;;;;;;5024416;28;20040;-67
2021/10/10 09:41:34;;;;;;;27.50;21.58;;;10.60;99.90;;;;;;5041445;28;20061;-67
2021/10/10 09:44:34;;;;;;;24.73;21.63;;;10.70;99.90;;;;;;5008312;28;20152;-67
2021/10/10 09:46:57;;;;;;;29.25;21.90;;;10.80;99.90;;;;;;5024041;28;20078;-68
2021/10/10 09:49:32;;;;;;;25.35;21.88;;;10.90;99.90;;;;;;5023834;28;20336;-67
2021/10/10 09:52:12;;;;;;;25.88;23.08;;;11.00;99.90;;;;;;5026457;28;20046;-68
2021/10/10 09:54:58;;;;;;;29.15;23.45;;;11.10;99.90;;;;;;5022385;28;20065;-68
2021/10/10 09:57:28;;;;;;;28.42;25.08;;;11.20;99.90;;;;;;5021398;28;20038;-68
2021/10/10 10:00:16;;;;;;;25.15;22.40;;;11.20;99.90;;;;;;5041017;28;20506;-68
2021/10/10 10:02:42;;;;;;;32.65;24.65;;;11.30;99.90;;;;;;5023379;28;20551;-68
2021/10/10 10:05:08;;;;;;;30.02;21.95;;;11.50;99.90;;;;;;5026713;28;20510;-68
2021/10/10 10:07:35;;;;;;;27.25;23.80;;;11.60;99.90;;;;;;5025264;28;20053;-68
2021/10/10 10:10:01;;;;;;;29.63;23.83;;;11.70;99.90;;;;;;5024008;28;20112;-68
2021/10/10 10:12:26;;;;;;;27.73;22.77;;;11.80;99.90;;;;;;5023253;28;20124;-68
2021/10/10 10:14:56;;;;;;;27.83;22.58;;;12.00;99.90;;;;;;5025355;28;20044;-68
2021/10/10 10:17:27;;;;;;;25.33;22.67;;;12.10;99.90;;;;;;5021681;28;20084;-68
2021/10/10 10:19:57;;;;;;;28.27;23.55;;;12.30;99.90;;;;;;5025291;28;20376;-67
2021/10/10 10:22:23;;;;;;;29.75;23.15;;;12.60;99.90;;;;;;5024613;28;20064;-68
2021/10/10 10:24:48;;;;;;;26.77;23.75;;;12.80;99.90;;;;;;5023822;28;20041;-68
2021/10/10 10:27:16;;;;;;;26.65;22.60;;;12.90;99.90;;;;;;5026966;28;20057;-68
2021/10/10 10:29:44;;;;;;;27.00;23.55;;;13.00;99.90;;;;;;5024095;28;20038;-68
2021/10/10 10:32:12;;;;;;;26.55;23.73;;;13.20;99.90;;;;;;5023827;28;20095;-67
2021/10/10 10:34:38;;;;;;;26.92;21.23;;;13.40;99.90;;;;;;5024352;28;20049;-68
2021/10/10 10:37:09;;;;;;;30.08;22.83;;;13.70;99.90;;;;;;5025862;28;20475;-68
2021/10/10 10:39:48;;;;;;;25.80;23.05;;;13.90;99.90;;;;;;5026023;28;20054;-68
2021/10/10 10:42:23;;;;;;;32.92;23.63;;;14.10;99.90;;;;;;5025911;28;20094;-68
2021/10/10 10:44:51;;;;;;;30.15;22.75;;;14.40;99.90;;;;;;5025134;28;20054;-68
2021/10/10 10:47:20;;;;;;;25.55;22.80;;;14.60;99.90;;;;;;5026529;28;20057;-68
2021/10/10 10:50:06;;;;;;;25.00;21.83;;;14.70;99.90;;;;;;5025273;28;20762;-68
2021/10/10 10:52:36;;;;;;;;;;;14.90;99.90;;;;;;5040060;28;20058;-68
2021/10/10 10:55:38;;;;;;;28.00;21.98;;;15.10;99.90;;;;;;5026656;28;19921;-68
2021/10/10 10:58:13;;;;;;;26.60;22.48;;;15.30;99.90;;;;;;4945062;28;20119;-68
2021/10/10 11:00:40;;;;;;;25.73;22.13;;;15.50;99.90;;;;;;5015136;28;20054;-68
2021/10/10 11:03:16;;;;;;;30.60;22.38;;;15.70;99.90;;;;;;5025203;28;20041;-68
2021/10/10 11:05:45;;;;;;;27.45;22.17;;;15.80;99.90;;;;;;5039831;28;20046;-68
2021/10/10 11:08:17;;;;;;;25.52;21.00;;;15.90;99.90;;;;;;5025147;28;20049;-68
2021/10/10 11:11:03;;;;;;;28.42;21.17;;;16.10;99.90;;;;;;5026472;28;20136;-69
2021/10/10 11:13:34;;;;;;;23.85;21.25;;;16.20;99.90;;;;;;5027050;28;20046;-68
2021/10/10 11:16:41;;;;;;;26.45;22.63;;;16.30;99.90;;;;;;5024741;28;20056;-68
2021/10/10 11:19:08;;;;;;;;;;;16.40;99.90;;;;;;5005789;28;20057;-68
2021/10/10 11:21:39;;;;;;;29.40;23.98;;;16.30;99.90;;;;;;5027633;28;19925;-69
2021/10/10 11:24:12;;;;;;;28.52;23.65;;;16.40;99.90;;;;;;5026814;28;20298;-68
2021/10/10 11:26:39;;;;;;;31.48;25.20;;;16.50;99.90;;;;;;5026709;28;20049;-69
2021/10/10 11:29:13;;;;;;;30.08;23.30;;;16.60;99.90;;;;;;5027307;28;20718;-69
2021/10/10 11:31:40;;;;;;;27.05;22.45;;;16.70;99.90;;;;;;5043860;28;20041;-69
2021/10/10 11:34:11;;;;;;;25.70;22.13;;;16.80;99.90;;;;;;5009818;28;20052;-68
2021/10/10 11:36:39;;;;;;;26.17;22.35;;;16.90;99.90;;;;;;5029483;28;20379;-69
2021/10/10 11:39:05;;;;;;;28.02;23.02;;;17.00;99.90;;;;;;5027563;28;20072;-68
2021/10/10 11:41:31;;;;;;;26.92;22.17;;;17.10;99.90;;;;;;5030217;28;20033;-68
2021/10/10 11:44:04;;;;;;;25.60;21.30;;;17.20;99.90;;;;;;5011193;28;20045;-69
2021/10/10 11:46:42;;;;;;;29.52;25.30;;;17.30;99.90;;;;;;5029240;28;20527;-68
2021/10/10 11:49:37;;;;;;;35.17;24.90;;;17.20;99.90;;;;;;5025186;28;20591;-68
2021/10/10 11:52:15;;;;;;;33.33;26.58;;;17.00;99.90;;;;;;5027726;28;20040;-68
2021/10/10 11:54:42;;;;;;;33.33;25.13;;;17.00;99.90;;;;;;5027318;28;20038;-68
2021/10/10 11:57:13;;;;;;;30.23;25.73;;;17.00;99.90;;;;;;5027830;28;20052;-68
2021/10/10 11:59:53;;;;;;;33.17;25.23;;;17.00;99.90;;;;;;5028460;28;20044;-69
2021/10/10 12:02:19;;;;;;;33.72;26.35;;;17.10;99.90;;;;;;5028705;28;20492;-68
2021/10/10 12:04:46;;;;;;;33.17;26.70;;;17.10;99.90;;;;;;5028348;28;20083;-68
2021/10/10 12:07:12;;;;;;;32.30;25.05;;;17.10;99.90;;;;;;5027753;28;20037;-68
2021/10/10 12:09:49;;;;;;;36.53;26.98;;;17.20;99.90;;;;;;5027274;28;20516;-69
2021/10/10 12:12:15;;;;;;;32.85;24.48;;;17.30;99.90;;;;;;5028235;28;20045;-69
2021/10/10 12:14:53;;;;;;;35.05;25.67;;;17.40;99.90;;;;;;5027296;28;20489;-68
2021/10/10 12:17:46;;;;;;;30.83;25.45;;;17.50;99.90;;;;;;5027746;28;20048;-68
2021/10/10 12:20:15;;;;;;;32.08;26.52;;;17.40;99.90;;;;;;5027307;28;20049;-68
2021/10/10 12:22:53;;;;;;;31.35;25.38;;;17.40;99.90;;;;;;5025519;28;20040;-68
2021/10/10 12:25:24;;;;;;;32.13;26.58;;;17.30;99.90;;;;;;5027094;28;20050;-68
2021/10/10 12:28:01;;;;;;;35.35;25.63;;;17.30;99.90;;;;;;5024856;28;20079;-68
2021/10/10 12:30:53;;;;;;;33.65;25.15;;;17.40;99.90;;;;;;5043057;28;20139;-68
2021/10/10 12:33:28;;;;;;;28.92;25.83;;;17.40;99.90;;;;;;5018236;28;20076;-68
2021/10/10 12:35:54;;;;;;;;;;;17.40;99.90;;;;;;5027051;28;20037;-68
2021/10/10 12:38:30;;;;;;;32.83;27.60;;;17.20;99.90;;;;;;5028559;28;20310;-68
2021/10/10 12:40:56;;;;;;;35.88;26.70;;;17.00;99.90;;;;;;5025485;28;20052;-68
2021/10/10 12:43:41;;;;;;;32.72;29.23;;;16.90;99.90;;;;;;5026055;28;20037;-67
2021/10/10 12:46:06;;;;;;;33.17;28.48;;;16.80;99.90;;;;;;5027758;28;20049;-67
2021/10/10 12:48:32;;;;;;;35.60;31.13;;;16.70;99.90;;;;;;5025226;28;20124;-68